Time;durP1;ratioP1;P1;durP2;ratioP2;P2;SDS_P1;SDS_P2;PMS_P1;PMS_P2;Temp;Humidity;BMP_temperature;BMP_pressure;BME280_temperature;BME280_humidity;BME280_pressure;Samples;Min_cycle;Max_cycle;Signal;HPM_P1;HPM_P2
2022/06/10 00:00:17;;;;;;;7.60;3.17;;;16.70;68.70;;;;;;5039633;28;20088;-69
2022/06/10 00:02:43;;;;;;;8.10;3.20;;;16.70;68.80;;;;;;5048559;28;20040;-68
2022/06/10 00:05:14;;;;;;;7.57;2.90;;;16.70;68.90;;;;;;5042491;28;20447;-69
2022/06/10 00:07:40;;;;;;;10.70;3.25;;;16.70;68.90;;;;;;5051951;28;20453;-68
2022/06/10 00:10:06;;;;;;;9.05;2.78;;;16.60;68.80;;;;;;5041238;28;20031;-68
2022/06/10 00:12:32;;;;;;;10.10;3.25;;;16.60;68.90;;;;;;5029037;28;20111;-68
2022/06/10 00:14:58;;;;;;;9.73;3.13;;;16.60;69.00;;;;;;5039560;28;20060;-69
2022/06/10 00:17:23;;;;;;;8.00;3.15;;;16.50;69.00;;;;;;5054188;28;20040;-68
2022/06/10 00:19:49;;;;;;;8.43;2.90;;;16.50;69.20;;;;;;5049440;28;20036;-68
2022/06/10 00:22:14;;;;;;;7.38;2.88;;;16.50;69.20;;;;;;5031820;28;20083;-69
2022/06/10 00:24:40;;;;;;;7.68;2.78;;;16.50;69.30;;;;;;5038729;28;20063;-68
2022/06/10 00:27:06;;;;;;;5.47;2.42;;;16.40;69.30;;;;;;5054914;28;20040;-68
2022/06/10 00:29:32;;;;;;;7.75;2.70;;;16.50;69.40;;;;;;5047239;28;20029;-68
2022/06/10 00:31:58;;;;;;;7.93;2.80;;;16.40;69.50;;;;;;5050600;28;20043;-68
2022/06/10 00:34:24;;;;;;;5.90;2.70;;;16.40;69.50;;;;;;5042206;28;20037;-69
2022/06/10 00:36:49;;;;;;;9.93;2.88;;;16.40;69.60;;;;;;5034917;28;20031;-69
2022/06/10 00:39:15;;;;;;;6.35;2.63;;;16.30;69.70;;;;;;5052168;28;20029;-68
2022/06/10 00:41:43;;;;;;;8.20;2.75;;;16.30;69.70;;;;;;5031741;28;20029;-68
2022/06/10 00:44:39;;;;;;;8.73;2.92;;;16.30;69.80;;;;;;5049583;28;20017;-68
2022/06/10 00:47:13;;;;;;;6.65;2.60;;;16.30;69.90;;;;;;5054445;28;20032;-68
2022/06/10 00:49:40;;;;;;;6.43;2.33;;;16.20;69.90;;;;;;5044302;28;20029;-69
2022/06/10 00:52:15;;;;;;;7.50;2.42;;;16.20;70.00;;;;;;5041087;28;20033;-68
2022/06/10 00:54:45;;;;;;;6.68;2.58;;;16.20;70.10;;;;;;5037390;28;20044;-69
2022/06/10 00:57:14;;;;;;;6.25;2.60;;;16.20;70.20;;;;;;5037816;28;20064;-68
2022/06/10 01:00:02;;;;;;;7.22;2.78;;;16.10;70.20;;;;;;5050500;28;20049;-68
2022/06/10 01:02:34;;;;;;;7.13;2.63;;;16.10;70.30;;;;;;5039008;28;20352;-68
2022/06/10 01:05:03;;;;;;;7.38;2.55;;;16.10;70.30;;;;;;5047603;28;20041;-68
2022/06/10 01:07:33;;;;;;;7.28;2.72;;;16.00;70.30;;;;;;5027457;28;20401;-68
2022/06/10 01:10:01;;;;;;;6.65;2.17;;;16.00;70.40;;;;;;5036492;28;20119;-68
2022/06/10 01:13:10;;;;;;;8.57;2.80;;;16.00;70.40;;;;;;5036351;28;20450;-68
2022/06/10 01:15:50;;;;;;;5.63;2.70;;;16.00;70.50;;;;;;5045112;28;20067;-68
2022/06/10 01:18:41;;;;;;;7.72;2.50;;;15.90;70.60;;;;;;5044637;28;20068;-68
2022/06/10 01:21:35;;;;;;;6.33;2.40;;;15.90;70.60;;;;;;5044165;28;20029;-68
2022/06/10 01:24:28;;;;;;;5.80;2.30;;;15.90;70.60;;;;;;5015069;28;20049;-68
2022/06/10 01:30:01;;;;;;;6.60;2.72;;;15.80;70.70;;;;;;5036743;28;20073;-68
2022/06/10 01:32:57;;;;;;;7.07;2.78;;;15.80;70.80;;;;;;5014681;28;20124;-68
2022/06/10 01:35:32;;;;;;;7.50;2.90;;;15.80;71.50;;;;;;5018110;28;20041;-68
2022/06/10 01:38:10;;;;;;;7.05;2.72;;;15.70;70.80;;;;;;5019796;28;20040;-68
2022/06/10 01:40:58;;;;;;;7.03;2.30;;;15.70;71.00;;;;;;5031207;28;20155;-68
2022/06/10 01:43:39;;;;;;;5.50;2.10;;;15.70;71.00;;;;;;5009654;28;20030;-68
2022/06/10 01:46:26;;;;;;;6.00;2.58;;;15.70;71.00;;;;;;5014131;28;20026;-68
2022/06/10 01:49:18;;;;;;;4.72;2.05;;;15.70;71.00;;;;;;5020998;28;20044;-68
2022/06/10 01:51:56;;;;;;;6.43;2.45;;;15.70;71.10;;;;;;5009421;28;20431;-68
2022/06/10 01:54:38;;;;;;;6.35;2.47;;;15.60;71.10;;;;;;5018161;28;20064;-68
2022/06/10 01:57:09;;;;;;;;;;;15.60;71.20;;;;;;5034761;28;20056;-68
2022/06/10 01:59:44;;;;;;;7.20;2.65;;;15.60;71.10;;;;;;5028497;28;19909;-68
2022/06/10 02:02:17;;;;;;;5.78;2.30;;;15.60;71.30;;;;;;5053414;28;20040;-68
2022/06/10 02:04:48;;;;;;;6.25;2.63;;;15.50;71.30;;;;;;5045243;28;20021;-68
2022/06/10 02:07:39;;;;;;;8.02;2.78;;;15.50;71.30;;;;;;5054525;28;20115;-68
2022/06/10 02:10:13;;;;;;;8.30;2.90;;;15.50;71.30;;;;;;5057799;28;20047;-68
2022/06/10 02:12:51;;;;;;;6.03;2.40;;;15.50;71.40;;;;;;5050223;28;20041;-68
2022/06/10 02:15:18;;;;;;;7.80;2.70;;;15.50;71.50;;;;;;5053006;28;20036;-68
2022/06/10 02:17:56;;;;;;;6.13;2.65;;;15.50;71.50;;;;;;5054275;28;20037;-68
2022/06/10 02:20:26;;;;;;;6.45;2.40;;;15.50;71.70;;;;;;5057538;28;20040;-68
2022/06/10 02:22:54;;;;;;;6.05;2.45;;;15.50;71.70;;;;;;5047066;28;20390;-68
2022/06/10 02:25:27;;;;;;;7.05;2.60;;;15.40;71.70;;;;;;5046840;28;20070;-68
2022/06/10 02:27:59;;;;;;;7.43;2.80;;;15.40;71.80;;;;;;5048326;28;20434;-68
2022/06/10 02:30:56;;;;;;;6.30;2.65;;;15.40;71.80;;;;;;5057634;28;20033;-68
2022/06/10 02:33:22;;;;;;;7.20;2.88;;;15.40;71.80;;;;;;5048616;28;20106;-68
2022/06/10 02:36:03;;;;;;;6.03;2.47;;;15.40;71.90;;;;;;5039967;28;20462;-68
2022/06/10 02:38:47;;;;;;;8.55;3.03;;;15.40;72.00;;;;;;5052222;28;20037;-68
2022/06/10 02:41:28;;;;;;;7.40;2.50;;;15.40;72.20;;;;;;5054943;28;20029;-68
2022/06/10 02:44:20;;;;;;;8.15;2.63;;;15.40;72.20;;;;;;5050260;28;20358;-68
2022/06/10 02:47:05;;;;;;;6.53;2.70;;;15.40;72.30;;;;;;5036744;28;20590;-68
2022/06/10 02:49:30;;;;;;;5.45;1.92;;;15.40;72.30;;;;;;5049390;28;20033;-68
2022/06/10 02:51:56;;;;;;;8.48;2.90;;;15.50;72.40;;;;;;5043484;28;20033;-68
2022/06/10 02:54:27;;;;;;;6.15;2.63;;;15.50;72.50;;;;;;5044639;28;20033;-68
2022/06/10 02:56:53;;;;;;;7.03;2.70;;;15.50;72.60;;;;;;5041146;28;20075;-68
2022/06/10 03:02:44;;;;;;;6.25;2.55;;;15.60;72.60;;;;;;5037478;28;20036;-68
2022/06/10 03:06:02;;;;;;;9.10;2.88;;;15.60;72.60;;;;;;5036591;28;20077;-68
2022/06/10 03:08:33;;;;;;;6.35;2.58;;;15.60;72.60;;;;;;5012175;28;20116;-68
2022/06/10 03:11:18;;;;;;;;;;;15.60;72.60;;;;;;5040751;28;20458;-68
2022/06/10 03:13:55;;;;;;;6.68;2.78;;;15.60;72.40;;;;;;5043687;28;19917;-68
2022/06/10 03:16:42;;;;;;;6.65;2.70;;;15.70;72.60;;;;;;5036918;28;20510;-68
2022/06/10 03:19:51;;;;;;;6.88;2.50;;;15.70;72.70;;;;;;5046702;28;20029;-68
2022/06/10 03:22:38;;;;;;;7.07;2.65;;;15.70;72.60;;;;;;5034363;28;20083;-68
2022/06/10 03:25:19;;;;;;;7.55;2.78;;;15.70;72.60;;;;;;5034323;28;20457;-68
2022/06/10 03:27:52;;;;;;;8.38;2.50;;;15.80;72.80;;;;;;5043249;28;20057;-68
2022/06/10 03:30:23;;;;;;;9.43;2.97;;;15.80;72.80;;;;;;5043077;28;20030;-68
2022/06/10 03:33:08;;;;;;;7.75;2.72;;;15.80;72.90;;;;;;5034467;28;20430;-68
2022/06/10 03:35:44;;;;;;;7.95;2.88;;;15.80;72.90;;;;;;5034331;28;20037;-68
2022/06/10 03:38:10;;;;;;;8.23;2.80;;;15.90;73.00;;;;;;5033678;28;20038;-68
2022/06/10 03:40:36;;;;;;;9.48;2.85;;;15.90;72.90;;;;;;5034094;28;20083;-68
2022/06/10 03:43:05;;;;;;;7.47;2.53;;;16.00;73.00;;;;;;5036157;28;20473;-68
2022/06/10 03:45:45;;;;;;;6.07;2.15;;;16.00;73.00;;;;;;5038147;28;20033;-68
2022/06/10 03:48:17;;;;;;;8.50;2.50;;;16.10;73.10;;;;;;5055259;28;20350;-68
2022/06/10 03:50:43;;;;;;;8.38;2.75;;;16.10;73.00;;;;;;5038432;28;20041;-68
2022/06/10 03:53:15;;;;;;;9.63;2.70;;;16.20;73.00;;;;;;5054907;28;20033;-68
2022/06/10 03:55:41;;;;;;;6.15;2.00;;;16.20;73.10;;;;;;5047629;28;20035;-68
2022/06/10 03:58:09;;;;;;;6.53;2.45;;;16.30;73.10;;;;;;5050421;28;20119;-68
2022/06/10 04:00:35;;;;;;;8.52;2.20;;;16.30;73.00;;;;;;5039932;28;20021;-68
2022/06/10 04:03:01;;;;;;;8.65;2.70;;;16.30;73.00;;;;;;5034224;28;20076;-68
2022/06/10 04:05:26;;;;;;;9.20;2.35;;;16.40;73.00;;;;;;5044556;28;20052;-68
2022/06/10 04:07:52;;;;;;;11.93;2.50;;;16.40;72.90;;;;;;5052684;28;20033;-68
2022/06/10 04:10:21;;;;;;;6.82;2.45;;;16.40;72.80;;;;;;5048281;28;20025;-68
2022/06/10 04:12:47;;;;;;;10.70;2.60;;;16.40;72.60;;;;;;5046179;28;20029;-68
2022/06/10 04:15:16;;;;;;;7.55;2.45;;;16.50;72.50;;;;;;5042375;28;20025;-68
2022/06/10 04:17:47;;;;;;;8.63;2.97;;;16.50;72.40;;;;;;5055284;28;20350;-68
2022/06/10 04:20:17;;;;;;;7.15;2.45;;;16.50;72.40;;;;;;5055227;28;20047;-68
2022/06/10 04:22:43;;;;;;;9.43;2.30;;;16.50;72.60;;;;;;5052529;28;20029;-68
2022/06/10 04:25:09;;;;;;;7.78;2.50;;;16.50;72.80;;;;;;5054288;28;20104;-68
2022/06/10 04:27:35;;;;;;;9.82;2.85;;;16.50;73.10;;;;;;5053807;28;20033;-68
2022/06/10 04:30:02;;;;;;;10.23;2.55;;;16.50;73.40;;;;;;5054745;28;20040;-68
2022/06/10 04:32:28;;;;;;;7.28;2.33;;;16.50;73.60;;;;;;5054088;28;20094;-68
2022/06/10 04:34:54;;;;;;;7.20;2.42;;;16.50;73.90;;;;;;5032979;28;20441;-68
2022/06/10 04:37:19;;;;;;;8.15;2.90;;;16.50;73.90;;;;;;5039207;28;20033;-68
2022/06/10 04:39:45;;;;;;;7.68;3.35;;;16.50;74.10;;;;;;5032957;28;20029;-68
2022/06/10 04:42:10;;;;;;;9.43;3.03;;;16.50;74.40;;;;;;5041410;28;20370;-68
2022/06/10 04:44:36;;;;;;;9.70;2.90;;;16.60;74.60;;;;;;5046821;28;20021;-68
2022/06/10 04:47:02;;;;;;;10.13;2.83;;;16.60;74.80;;;;;;5040368;28;20025;-68
2022/06/10 04:49:29;;;;;;;9.57;2.78;;;16.60;75.00;;;;;;5042556;28;20107;-68
2022/06/10 04:51:55;;;;;;;11.50;2.90;;;16.60;75.20;;;;;;5041962;28;20029;-68
2022/06/10 04:54:21;;;;;;;7.38;2.95;;;16.60;75.30;;;;;;5035751;28;20548;-69
2022/06/10 04:56:47;;;;;;;9.07;2.80;;;16.70;75.50;;;;;;5039101;28;20128;-68
2022/06/10 04:59:13;;;;;;;6.22;2.63;;;16.60;75.70;;;;;;5055815;28;20029;-69
2022/06/10 05:01:38;;;;;;;9.45;2.75;;;16.70;75.90;;;;;;5044378;28;20017;-67
2022/06/10 05:04:04;;;;;;;9.68;2.83;;;16.60;76.10;;;;;;5038789;28;20029;-67
2022/06/10 05:06:30;;;;;;;6.15;2.58;;;16.60;76.30;;;;;;5044362;28;20021;-67
2022/06/10 05:08:56;;;;;;;7.55;2.53;;;16.60;76.40;;;;;;5056233;28;20316;-67
2022/06/10 05:11:22;;;;;;;6.28;3.08;;;16.70;76.50;;;;;;5046455;28;20103;-67
2022/06/10 05:13:48;;;;;;;7.53;3.10;;;16.70;76.60;;;;;;5057570;28;20029;-67
2022/06/10 05:16:14;;;;;;;10.32;2.60;;;16.70;76.60;;;;;;5056658;28;20026;-67
2022/06/10 05:18:40;;;;;;;6.18;2.40;;;16.70;76.60;;;;;;5046204;28;20047;-68
2022/06/10 05:21:05;;;;;;;9.05;3.05;;;16.80;76.60;;;;;;5049154;28;20021;-67
2022/06/10 05:23:31;;;;;;;5.55;2.38;;;16.80;76.60;;;;;;5056005;28;20029;-67
2022/06/10 05:25:57;;;;;;;9.75;3.47;;;16.80;76.60;;;;;;5058250;28;20033;-67
2022/06/10 05:28:23;;;;;;;9.07;3.08;;;16.80;76.70;;;;;;5057379;28;20032;-67
2022/06/10 05:30:49;;;;;;;8.20;3.17;;;16.90;76.80;;;;;;5057375;28;20037;-67
2022/06/10 05:33:15;;;;;;;10.93;3.00;;;16.90;76.70;;;;;;5053556;28;20087;-68
2022/06/10 05:35:43;;;;;;;8.40;2.75;;;17.00;76.90;;;;;;5052397;28;20078;-67
2022/06/10 05:38:09;;;;;;;8.25;3.05;;;17.00;76.90;;;;;;5056748;28;20037;-68
2022/06/10 05:40:35;;;;;;;7.65;3.22;;;17.00;76.80;;;;;;5056398;28;20112;-67
2022/06/10 05:43:02;;;;;;;8.65;3.38;;;17.10;76.90;;;;;;5048506;28;20588;-67
2022/06/10 05:45:29;;;;;;;9.18;3.20;;;17.10;76.90;;;;;;5057474;28;20362;-67
2022/06/10 05:48:00;;;;;;;8.68;3.17;;;17.20;76.80;;;;;;5046161;28;20029;-68
2022/06/10 05:50:27;;;;;;;7.95;2.75;;;17.30;76.70;;;;;;5043336;28;20033;-69
2022/06/10 05:52:54;;;;;;;7.63;2.92;;;17.30;76.70;;;;;;5046064;28;20038;-67
2022/06/10 05:55:21;;;;;;;7.80;2.80;;;17.30;76.70;;;;;;5043646;28;20030;-67
2022/06/10 05:57:48;;;;;;;10.70;3.35;;;17.30;76.60;;;;;;5036784;28;20021;-67
2022/06/10 06:00:17;;;;;;;7.63;3.00;;;17.30;76.60;;;;;;5037123;28;20034;-67
2022/06/10 06:02:43;;;;;;;8.77;3.00;;;17.30;76.70;;;;;;5041404;28;20061;-67
2022/06/10 06:05:10;;;;;;;8.02;3.03;;;17.30;76.70;;;;;;5038570;28;20045;-67
2022/06/10 06:07:38;;;;;;;7.28;2.75;;;17.30;76.80;;;;;;5019008;28;20098;-67
2022/06/10 06:10:05;;;;;;;7.10;2.67;;;17.30;76.70;;;;;;5038117;28;20363;-67
2022/06/10 06:12:30;;;;;;;8.10;2.75;;;17.40;76.70;;;;;;5035053;28;20041;-67
2022/06/10 06:14:56;;;;;;;7.95;2.90;;;17.50;76.60;;;;;;5039505;28;20802;-68
2022/06/10 06:17:22;;;;;;;8.10;3.00;;;17.50;76.40;;;;;;5034865;28;20080;-67
2022/06/10 06:19:49;;;;;;;12.73;2.80;;;17.50;76.30;;;;;;5035547;28;20407;-67
2022/06/10 06:22:15;;;;;;;9.82;2.53;;;17.50;76.30;;;;;;5036744;28;20501;-67
2022/06/10 06:24:41;;;;;;;9.10;2.90;;;17.60;76.40;;;;;;5034508;28;20028;-67
2022/06/10 06:27:10;;;;;;;12.07;3.30;;;17.70;76.50;;;;;;5027942;28;20343;-68
2022/06/10 06:29:35;;;;;;;8.68;2.80;;;17.70;76.30;;;;;;5035152;28;20025;-68
2022/06/10 06:32:02;;;;;;;12.25;3.20;;;17.80;76.30;;;;;;5035605;28;20465;-67
2022/06/10 06:34:27;;;;;;;6.43;2.28;;;17.90;76.10;;;;;;5037706;28;20033;-67
2022/06/10 06:36:55;;;;;;;9.93;3.50;;;18.10;75.90;;;;;;5040015;28;20056;-67
2022/06/10 06:39:23;;;;;;;8.27;2.85;;;18.20;75.80;;;;;;5034667;28;20481;-68
2022/06/10 06:41:50;;;;;;;9.80;2.47;;;18.20;75.60;;;;;;5036487;28;20040;-68
2022/06/10 06:44:16;;;;;;;6.78;2.83;;;18.30;75.50;;;;;;5035786;28;20036;-67
2022/06/10 06:46:43;;;;;;;10.68;2.78;;;18.30;75.40;;;;;;5038742;28;20025;-68
2022/06/10 06:49:13;;;;;;;7.82;2.67;;;18.30;75.50;;;;;;5039954;28;20029;-69
2022/06/10 06:51:40;;;;;;;11.77;2.90;;;18.30;75.50;;;;;;5035053;28;20018;-67
2022/06/10 06:54:07;;;;;;;7.80;3.08;;;18.30;75.40;;;;;;5037923;28;20449;-68
2022/06/10 06:56:32;;;;;;;12.00;3.42;;;18.30;75.30;;;;;;5035408;28;20032;-68
2022/06/10 06:58:58;;;;;;;8.70;3.17;;;18.30;75.30;;;;;;5043635;28;20458;-68
2022/06/10 07:01:23;;;;;;;8.23;3.00;;;18.30;75.40;;;;;;5040022;28;20041;-68
2022/06/10 07:03:50;;;;;;;10.15;3.45;;;18.30;75.40;;;;;;5051294;28;20024;-68
2022/06/10 07:06:16;;;;;;;7.97;2.97;;;18.30;75.10;;;;;;5040219;28;20029;-68
2022/06/10 07:08:42;;;;;;;9.43;3.40;;;18.30;74.90;;;;;;5049917;28;20040;-68
2022/06/10 07:11:08;;;;;;;12.00;3.55;;;18.30;74.80;;;;;;5029136;28;20056;-67
2022/06/10 07:13:36;;;;;;;13.20;3.10;;;18.20;74.60;;;;;;5054920;28;20044;-67
2022/06/10 07:16:02;;;;;;;8.35;3.10;;;18.30;74.60;;;;;;5034676;28;20029;-67
2022/06/10 07:18:30;;;;;;;8.98;3.00;;;18.30;74.50;;;;;;5055044;28;20035;-67
2022/06/10 07:20:56;;;;;;;7.38;2.78;;;18.30;74.40;;;;;;5042634;28;20379;-67
2022/06/10 07:23:22;;;;;;;8.52;2.95;;;18.30;74.30;;;;;;5061315;28;20040;-67
2022/06/10 07:25:48;;;;;;;8.90;3.03;;;18.30;74.20;;;;;;5046548;28;20025;-67
2022/06/10 07:28:14;;;;;;;8.52;2.97;;;18.30;74.20;;;;;;5042206;28;20037;-66
2022/06/10 07:30:41;;;;;;;8.63;3.03;;;18.30;74.20;;;;;;5055599;28;20029;-66
2022/06/10 07:33:08;;;;;;;8.20;2.65;;;18.30;74.10;;;;;;5055608;28;20032;-67
2022/06/10 07:35:35;;;;;;;8.07;2.67;;;18.30;74.10;;;;;;5055770;28;20071;-67
2022/06/10 07:38:01;;;;;;;8.85;2.60;;;18.30;73.90;;;;;;5054650;28;20102;-66
2022/06/10 07:43:13;;;;;;;7.72;2.50;;;18.40;73.80;;;;;;5055845;28;20041;-67
2022/06/10 07:45:39;;;;;;;7.47;2.25;;;18.40;73.60;;;;;;5054977;28;20033;-66
2022/06/10 07:48:05;;;;;;;9.43;2.97;;;18.40;73.60;;;;;;5054509;28;20036;-67
2022/06/10 07:50:32;;;;;;;6.80;2.10;;;18.40;73.40;;;;;;5055636;28;20029;-67
2022/06/10 07:52:59;;;;;;;7.78;2.20;;;18.50;73.40;;;;;;5055174;28;20033;-66
2022/06/10 07:55:24;;;;;;;8.35;2.55;;;18.50;73.20;;;;;;5047352;28;20331;-67
2022/06/10 07:57:51;;;;;;;7.22;2.25;;;18.50;73.00;;;;;;5052337;28;20025;-66
2022/06/10 08:00:17;;;;;;;7.82;2.47;;;18.60;72.90;;;;;;5046044;28;20029;-67
2022/06/10 08:02:43;;;;;;;5.60;2.20;;;18.70;72.70;;;;;;5024780;28;20029;-67
2022/06/10 08:05:14;;;;;;;7.80;2.10;;;18.90;72.40;;;;;;5039842;28;20022;-67
2022/06/10 08:07:40;;;;;;;6.10;2.05;;;19.40;71.50;;;;;;5048574;28;20037;-67
2022/06/10 08:10:12;;;;;;;6.15;2.10;;;19.70;70.50;;;;;;5048812;28;20355;-67
2022/06/10 08:12:38;;;;;;;7.28;1.92;;;20.20;69.80;;;;;;5038406;28;20049;-67
2022/06/10 08:15:04;;;;;;;6.97;2.00;;;20.60;68.70;;;;;;5050741;28;20040;-67
2022/06/10 08:17:30;;;;;;;9.05;2.22;;;21.10;67.60;;;;;;5052522;28;20049;-67
2022/06/10 08:19:55;;;;;;;6.32;1.90;;;21.40;66.60;;;;;;5048839;28;20438;-68
2022/06/10 08:22:33;;;;;;;7.10;1.92;;;21.40;66.10;;;;;;5042673;28;20021;-68
2022/06/10 08:25:08;;;;;;;6.82;1.95;;;21.40;65.90;;;;;;5054027;28;20831;-68
2022/06/10 08:27:34;;;;;;;4.53;1.60;;;21.50;65.60;;;;;;5054191;28;20167;-68
2022/06/10 08:30:03;;;;;;;7.47;1.92;;;21.60;65.40;;;;;;5052240;28;20062;-68
2022/06/10 08:32:29;;;;;;;7.07;1.60;;;21.60;65.10;;;;;;5044804;28;20033;-67
2022/06/10 08:34:54;;;;;;;7.43;1.83;;;21.70;64.80;;;;;;5046893;28;20040;-67
2022/06/10 08:37:20;;;;;;;9.20;2.30;;;21.70;64.40;;;;;;5050087;28;20041;-68
2022/06/10 08:39:45;;;;;;;4.15;1.67;;;21.70;64.10;;;;;;5041318;28;20111;-68
2022/06/10 08:42:32;;;;;;;5.97;1.60;;;21.70;64.00;;;;;;5023529;28;20427;-68
2022/06/10 08:45:03;;;;;;;6.95;2.08;;;21.80;63.80;;;;;;5044492;28;20466;-68
2022/06/10 08:47:35;;;;;;;5.22;1.65;;;22.00;63.70;;;;;;5045747;28;20026;-68
2022/06/10 08:50:27;;;;;;;5.85;1.60;;;22.20;63.20;;;;;;5040074;28;20018;-67
2022/06/10 08:53:18;;;;;;;5.18;1.70;;;22.50;62.60;;;;;;5053161;28;20353;-68
2022/06/10 08:56:06;;;;;;;7.50;1.73;;;22.80;62.00;;;;;;5054445;28;20111;-68
2022/06/10 08:58:39;;;;;;;4.70;1.77;;;22.90;61.70;;;;;;5034406;28;20128;-68
2022/06/10 09:01:14;;;;;;;5.13;1.90;;;23.00;61.40;;;;;;5020640;28;20434;-68
2022/06/10 09:03:48;;;;;;;6.30;1.45;;;23.20;60.70;;;;;;5046142;28;20040;-68
2022/06/10 09:06:35;;;;;;;5.70;1.90;;;23.30;60.20;;;;;;5053669;28;20033;-68
2022/06/10 09:09:04;;;;;;;4.15;1.25;;;23.50;59.60;;;;;;5053666;28;20055;-68
2022/06/10 09:11:35;;;;;;;6.05;1.80;;;23.50;59.60;;;;;;5050186;28;20048;-68
2022/06/10 09:14:11;;;;;;;4.55;1.42;;;23.50;59.60;;;;;;5039752;28;20354;-68
2022/06/10 09:16:43;;;;;;;5.20;1.45;;;23.70;59.10;;;;;;5038436;28;20101;-67
2022/06/10 09:19:22;;;;;;;5.05;1.40;;;23.70;59.00;;;;;;5041116;28;20037;-68
2022/06/10 09:22:07;;;;;;;4.45;1.25;;;23.60;59.20;;;;;;5033664;28;20025;-68
2022/06/10 09:24:51;;;;;;;7.07;2.17;;;23.50;58.90;;;;;;5017796;28;20025;-68
2022/06/10 09:27:30;;;;;;;5.45;1.70;;;23.40;59.00;;;;;;5035607;28;20117;-68
2022/06/10 09:29:57;;;;;;;6.38;1.80;;;23.20;59.10;;;;;;5035894;28;20488;-68
2022/06/10 09:32:23;;;;;;;4.85;1.40;;;22.90;59.50;;;;;;5032784;28;20030;-67
2022/06/10 09:35:13;;;;;;;7.70;2.03;;;22.80;59.50;;;;;;5045332;28;20377;-68
2022/06/10 09:38:02;;;;;;;4.95;1.63;;;22.80;59.40;;;;;;5034019;28;20038;-68
2022/06/10 09:40:51;;;;;;;4.40;1.67;;;22.90;59.50;;;;;;5032327;28;20029;-67
2022/06/10 09:43:42;;;;;;;4.00;1.50;;;23.10;59.10;;;;;;5037250;28;20067;-67
2022/06/10 09:46:34;;;;;;;7.25;1.80;;;23.40;58.60;;;;;;5043577;28;20032;-67
2022/06/10 09:49:18;;;;;;;;;;;23.60;58.20;;;;;;5040963;28;20029;-68
2022/06/10 09:51:49;;;;;;;6.43;1.63;;;23.70;58.30;;;;;;5035774;28;20312;-68
2022/06/10 09:54:48;;;;;;;6.10;1.50;;;23.70;58.00;;;;;;5035812;28;20037;-67
2022/06/10 09:57:47;;;;;;;4.65;1.50;;;23.80;57.60;;;;;;5013810;28;20044;-68
2022/06/10 10:00:24;;;;;;;6.68;1.67;;;23.90;57.30;;;;;;5031185;28;20033;-68
2022/06/10 10:03:46;;;;;;;4.07;1.40;;;24.10;57.10;;;;;;5016894;28;20451;-68
2022/06/10 10:06:42;;;;;;;6.53;1.70;;;24.30;56.40;;;;;;4976836;28;20045;-68
2022/06/10 10:09:47;;;;;;;5.65;1.80;;;24.40;56.40;;;;;;4976227;28;20452;-68
2022/06/10 10:12:33;;;;;;;8.75;2.05;;;24.40;56.50;;;;;;4963481;28;20047;-68
2022/06/10 10:15:33;;;;;;;7.25;1.92;;;24.60;55.80;;;;;;4977252;28;20058;-68
2022/06/10 10:18:22;;;;;;;7.55;1.75;;;24.50;55.60;;;;;;4973124;28;20098;-68
2022/06/10 10:20:58;;;;;;;7.35;2.60;;;24.40;56.00;;;;;;4975552;28;20031;-68
2022/06/10 10:23:34;;;;;;;6.00;2.05;;;24.40;56.10;;;;;;4977086;28;20074;-68
2022/06/10 10:26:02;;;;;;;6.82;1.75;;;24.30;56.00;;;;;;4976901;28;20122;-68
2022/06/10 10:28:31;;;;;;;6.90;1.90;;;24.40;56.10;;;;;;4976817;28;20070;-68
2022/06/10 10:31:19;;;;;;;5.43;1.80;;;24.50;55.90;;;;;;4976507;28;20078;-68
2022/06/10 10:33:45;;;;;;;5.43;1.70;;;24.50;55.90;;;;;;4984819;28;20050;-68
2022/06/10 10:36:33;;;;;;;6.30;2.13;;;24.40;56.10;;;;;;5019229;28;20135;-68
2022/06/10 10:39:13;;;;;;;7.38;1.70;;;24.30;56.20;;;;;;5056665;28;20063;-68
2022/06/10 10:41:43;;;;;;;6.93;1.70;;;24.10;56.10;;;;;;5047632;28;20028;-68
2022/06/10 10:44:32;;;;;;;6.20;1.70;;;24.00;56.50;;;;;;5055861;28;20739;-68
2022/06/10 10:47:03;;;;;;;5.85;1.80;;;24.00;56.70;;;;;;5057032;28;20099;-68
2022/06/10 10:49:55;;;;;;;;;;;23.90;56.60;;;;;;5056087;28;20029;-68
2022/06/10 10:52:29;;;;;;;6.38;1.58;;;23.80;56.90;;;;;;5033997;28;20014;-68
2022/06/10 10:54:59;;;;;;;6.32;2.20;;;23.80;57.00;;;;;;5033978;28;20446;-68
2022/06/10 10:57:29;;;;;;;5.15;1.80;;;23.80;56.90;;;;;;5054513;28;20447;-68
2022/06/10 11:00:11;;;;;;;8.77;2.35;;;23.80;56.90;;;;;;5049670;28;20083;-68
2022/06/10 11:02:53;;;;;;;7.55;2.40;;;23.90;57.10;;;;;;5033401;28;20130;-68
2022/06/10 11:05:32;;;;;;;10.35;2.10;;;24.00;57.00;;;;;;5051715;28;20075;-68
2022/06/10 11:08:19;;;;;;;7.50;2.10;;;24.00;56.90;;;;;;5053531;28;20166;-68
2022/06/10 11:11:22;;;;;;;8.75;2.85;;;24.00;56.60;;;;;;5055924;28;20049;-68
2022/06/10 11:13:54;;;;;;;6.63;2.20;;;24.10;56.50;;;;;;5034498;28;20037;-68
2022/06/10 11:16:26;;;;;;;6.53;2.30;;;23.90;56.60;;;;;;5034652;28;20057;-68
2022/06/10 11:19:11;;;;;;;7.70;2.38;;;23.80;56.80;;;;;;5034554;28;20044;-68
2022/06/10 11:21:55;;;;;;;8.50;2.35;;;23.70;57.00;;;;;;5016231;28;20466;-68
2022/06/10 11:24:38;;;;;;;9.43;2.55;;;23.60;57.20;;;;;;5019024;28;20378;-68
2022/06/10 11:27:18;;;;;;;5.82;2.13;;;23.50;57.70;;;;;;5014804;28;20128;-68
2022/06/10 11:29:57;;;;;;;9.35;2.72;;;23.40;57.80;;;;;;5030359;28;20049;-69
2022/06/10 11:32:26;;;;;;;10.93;2.53;;;23.30;57.80;;;;;;5025181;28;20156;-68
2022/06/10 11:35:02;;;;;;;7.15;2.63;;;23.30;58.00;;;;;;5006853;28;20057;-69
2022/06/10 11:37:31;;;;;;;9.18;2.13;;;23.30;58.10;;;;;;5019474;28;20041;-70
2022/06/10 11:40:15;;;;;;;9.35;2.50;;;23.10;58.30;;;;;;5019407;28;20045;-70
2022/06/10 11:42:53;;;;;;;9.48;3.00;;;23.00;58.60;;;;;;5021156;28;20033;-69
2022/06/10 11:45:23;;;;;;;7.68;2.38;;;22.80;59.00;;;;;;5021791;28;21249;-70
2022/06/10 11:48:01;;;;;;;9.15;2.75;;;22.70;59.30;;;;;;5023161;28;20071;-70
2022/06/10 11:50:51;;;;;;;5.22;2.28;;;22.60;59.70;;;;;;5008672;28;20041;-69
2022/06/10 11:53:40;;;;;;;7.82;2.45;;;22.50;59.80;;;;;;5034125;28;20025;-69
2022/06/10 12:01:53;;;;;;;7.68;2.53;;;22.60;60.20;;;;;;5041464;28;20105;-70
2022/06/10 12:04:29;;;;;;;7.85;2.50;;;22.80;60.00;;;;;;5034982;28;20486;-70
2022/06/10 12:07:00;;;;;;;6.28;2.22;;;23.00;59.80;;;;;;5053056;28;20024;-70
2022/06/10 12:09:34;;;;;;;7.15;2.53;;;23.10;59.60;;;;;;5042755;28;20041;-70
2022/06/10 12:12:05;;;;;;;6.88;2.45;;;23.30;59.40;;;;;;5051377;28;20048;-70
2022/06/10 12:14:41;;;;;;;9.80;2.45;;;23.60;59.10;;;;;;5042847;28;20443;-71
2022/06/10 12:17:22;;;;;;;8.02;2.50;;;23.80;58.90;;;;;;5049331;28;20061;-69
2022/06/10 12:19:54;;;;;;;7.95;2.55;;;23.80;58.30;;;;;;5037396;28;20064;-68
2022/06/10 12:22:20;;;;;;;8.70;2.35;;;23.90;58.20;;;;;;5039338;28;20057;-68
2022/06/10 12:24:49;;;;;;;7.00;2.30;;;24.00;58.20;;;;;;5050078;28;20126;-68
2022/06/10 12:27:29;;;;;;;6.53;2.13;;;24.10;57.70;;;;;;5042698;28;20431;-68
2022/06/10 12:30:06;;;;;;;6.43;2.40;;;24.20;57.30;;;;;;5044916;28;20047;-69
2022/06/10 12:32:51;;;;;;;6.55;2.03;;;24.30;57.50;;;;;;5038178;28;20078;-67
2022/06/10 12:35:25;;;;;;;7.80;2.60;;;24.30;57.50;;;;;;5045537;28;20041;-68
2022/06/10 12:38:10;;;;;;;8.38;2.55;;;24.20;57.60;;;;;;5041808;28;20062;-67
2022/06/10 12:40:41;;;;;;;7.93;2.45;;;24.20;57.60;;;;;;5043840;28;20418;-67
2022/06/10 12:43:26;;;;;;;;;;;24.20;57.70;;;;;;5042527;28;20760;-67
2022/06/10 12:45:59;;;;;;;7.60;2.75;;;24.20;57.80;;;;;;5043940;28;20242;-67
2022/06/10 12:48:34;;;;;;;8.88;2.70;;;24.20;57.90;;;;;;5038735;28;20028;-68
2022/06/10 12:51:12;;;;;;;11.57;3.20;;;24.20;58.00;;;;;;5036240;28;20069;-67
2022/06/10 12:54:11;;;;;;;7.90;2.67;;;24.20;57.90;;;;;;5038404;28;20340;-68
2022/06/10 12:56:37;;;;;;;8.80;2.75;;;24.30;58.00;;;;;;5039535;28;20055;-68
2022/06/10 12:59:06;;;;;;;6.95;2.30;;;24.30;57.90;;;;;;5034222;28;20045;-68
2022/06/10 13:01:32;;;;;;;7.90;2.85;;;24.40;57.60;;;;;;5037642;28;20034;-67
2022/06/10 13:04:03;;;;;;;6.55;2.70;;;24.50;57.40;;;;;;5034202;28;21364;-67
2022/06/10 13:07:03;;;;;;;6.68;2.58;;;24.40;57.40;;;;;;5032743;28;20421;-67
2022/06/10 13:09:37;;;;;;;7.85;2.25;;;24.40;57.60;;;;;;5045347;28;20088;-68
2022/06/10 13:12:08;;;;;;;9.52;2.92;;;24.30;57.40;;;;;;5033414;28;20045;-68
2022/06/10 13:14:38;;;;;;;8.10;2.60;;;24.20;57.50;;;;;;5031851;28;20040;-68
2022/06/10 13:17:42;;;;;;;7.65;3.10;;;24.10;58.00;;;;;;5041644;28;20025;-68
2022/06/10 13:20:19;;;;;;;8.32;2.90;;;23.90;58.10;;;;;;5043784;28;20076;-68
2022/06/10 13:23:11;;;;;;;7.63;3.00;;;23.70;58.40;;;;;;5039375;28;20048;-68
2022/06/10 13:25:37;;;;;;;6.40;2.70;;;23.70;58.70;;;;;;5047202;28;20040;-67
2022/06/10 13:28:16;;;;;;;8.70;3.20;;;23.70;58.90;;;;;;5048589;28;20083;-67
2022/06/10 13:30:42;;;;;;;9.02;3.17;;;23.70;58.60;;;;;;5055297;28;20064;-67
2022/06/10 13:33:12;;;;;;;6.20;2.70;;;23.80;58.60;;;;;;5043859;28;20067;-67
2022/06/10 13:35:58;;;;;;;8.15;3.40;;;23.90;59.20;;;;;;5050224;28;20557;-68